createdAt,value
2019-01-24T00:00:43.014Z,26.00
2019-01-24T00:03:10.789Z,25.62
2019-01-24T00:05:38.757Z,23.75
2019-01-24T00:08:07.537Z,25.55
2019-01-24T00:10:35.896Z,24.52
2019-01-24T00:13:03.941Z,25.82
2019-01-24T00:15:32.513Z,27.50
2019-01-24T00:18:00.300Z,27.65
2019-01-24T00:20:28.661Z,27.05
2019-01-24T00:22:57.023Z,23.98
2019-01-24T00:25:25.424Z,25.32
2019-01-24T00:27:53.921Z,25.92
2019-01-24T00:30:22.523Z,23.80
2019-01-24T00:32:50.806Z,26.05
2019-01-24T00:35:19.152Z,24.72
2019-01-24T00:37:48.014Z,25.08
2019-01-24T00:40:17.613Z,26.65
2019-01-24T00:42:46.138Z,25.25
2019-01-24T00:45:14.276Z,27.70
2019-01-24T00:47:42.736Z,26.82
2019-01-24T00:50:11.096Z,27.93
2019-01-24T00:52:39.801Z,27.42
2019-01-24T00:55:09.936Z,24.55
2019-01-24T00:57:38.606Z,25.75
2019-01-24T01:00:19.032Z,27.00
2019-01-24T01:02:46.938Z,27.10
2019-01-24T01:05:14.655Z,30.02
2019-01-24T01:07:42.066Z,26.20
2019-01-24T01:10:09.572Z,28.10
2019-01-24T01:12:36.821Z,26.77
2019-01-24T01:15:06.487Z,27.15
2019-01-24T01:17:34.885Z,25.88
2019-01-24T01:20:04.383Z,24.98
2019-01-24T01:22:32.934Z,28.42
2019-01-24T01:25:01.125Z,24.72
2019-01-24T01:27:29.410Z,28.27
2019-01-24T01:29:57.693Z,28.35
2019-01-24T01:32:26.354Z,27.30
2019-01-24T01:34:55.108Z,25.80
2019-01-24T01:37:23.888Z,26.93
2019-01-24T01:39:52.094Z,26.73
2019-01-24T01:42:20.140Z,26.02
2019-01-24T01:44:48.297Z,27.35
2019-01-24T01:47:16.528Z,26.57
2019-01-24T01:49:44.802Z,25.65
2019-01-24T01:52:13.292Z,26.75
2019-01-24T01:54:41.442Z,24.20
2019-01-24T01:57:09.717Z,27.58
2019-01-24T01:59:38.222Z,26.73
2019-01-24T02:02:06.565Z,25.10
2019-01-24T02:04:34.941Z,27.50
2019-01-24T02:07:03.599Z,26.45
2019-01-24T02:09:32.062Z,26.62
2019-01-24T02:12:00.257Z,24.37
2019-01-24T02:14:28.593Z,24.67
2019-01-24T02:16:57.414Z,25.90
2019-01-24T02:19:25.818Z,27.62
2019-01-24T02:21:54.360Z,28.00
2019-01-24T02:24:23.033Z,27.05
2019-01-24T02:26:51.602Z,26.90
2019-01-24T02:29:19.755Z,26.45
2019-01-24T02:31:48.411Z,27.93
2019-01-24T02:34:17.087Z,27.62
2019-01-24T02:36:45.133Z,28.85
2019-01-24T02:39:13.432Z,26.60
2019-01-24T02:41:41.462Z,26.85
2019-01-24T02:44:09.737Z,27.27
2019-01-24T02:46:37.743Z,26.93
2019-01-24T02:49:05.653Z,27.30
2019-01-24T02:51:34.537Z,26.35
2019-01-24T02:54:03.002Z,26.02
2019-01-24T02:56:31.693Z,26.48
2019-01-24T02:58:59.557Z,28.67
2019-01-24T03:01:28.200Z,27.70
2019-01-24T03:03:55.795Z,27.00
2019-01-24T03:06:24.770Z,28.20
2019-01-24T03:08:53.085Z,27.05
2019-01-24T03:11:21.327Z,26.07
2019-01-24T03:13:49.730Z,27.55
2019-01-24T03:16:18.525Z,25.65
2019-01-24T03:18:46.920Z,26.00
2019-01-24T03:21:14.841Z,26.23
2019-01-24T03:23:42.777Z,27.05
2019-01-24T03:26:10.810Z,26.02
2019-01-24T03:28:39.181Z,28.83
2019-01-24T03:31:07.487Z,28.40
2019-01-24T03:33:35.888Z,26.73
2019-01-24T03:36:04.050Z,28.50
2019-01-24T03:38:32.365Z,29.67
2019-01-24T03:41:00.308Z,28.40
2019-01-24T03:43:28.214Z,28.70
2019-01-24T03:45:56.305Z,27.73
2019-01-24T03:48:24.606Z,28.98
2019-01-24T03:50:52.770Z,30.35
2019-01-24T03:53:20.783Z,28.15
2019-01-24T03:55:48.994Z,29.23
2019-01-24T03:58:16.993Z,28.07
2019-01-24T04:00:45.146Z,28.25
2019-01-24T04:03:13.204Z,29.85
2019-01-24T04:05:41.413Z,31.30
2019-01-24T04:08:09.463Z,27.37
2019-01-24T04:10:37.425Z,28.15
2019-01-24T04:13:05.546Z,29.80
2019-01-24T04:15:33.938Z,28.90
2019-01-24T04:18:01.937Z,27.90
2019-01-24T04:20:30.102Z,28.95
2019-01-24T04:22:58.179Z,30.12
2019-01-24T04:25:26.354Z,31.23
2019-01-24T04:27:54.389Z,29.72
2019-01-24T04:30:22.820Z,31.37
2019-01-24T04:32:51.059Z,29.77
2019-01-24T04:35:20.222Z,31.87
2019-01-24T04:37:48.842Z,29.15
2019-01-24T04:40:17.443Z,30.23
2019-01-24T04:42:45.550Z,28.50
2019-01-24T04:45:14.167Z,32.53
2019-01-24T04:47:42.811Z,31.07
2019-01-24T04:50:12.723Z,29.80
2019-01-24T04:52:40.881Z,28.10
2019-01-24T04:55:10.527Z,28.98
2019-01-24T04:57:38.850Z,29.48
2019-01-24T05:00:11.598Z,29.07
2019-01-24T05:02:39.605Z,31.52
2019-01-24T05:05:08.518Z,31.55
2019-01-24T05:07:37.246Z,31.10
2019-01-24T05:10:05.836Z,34.05
2019-01-24T05:12:34.626Z,31.25
2019-01-24T05:15:03.897Z,30.50
2019-01-24T05:17:30.780Z,32.83
2019-01-24T05:19:58.792Z,31.68
2019-01-24T05:22:26.925Z,31.85
2019-01-24T05:24:53.799Z,30.75
2019-01-24T05:27:21.815Z,31.60
2019-01-24T05:29:49.886Z,34.15
2019-01-24T05:32:17.750Z,33.58
2019-01-24T05:34:46.063Z,33.73
2019-01-24T05:37:14.056Z,35.75
2019-01-24T05:39:42.070Z,35.52
2019-01-24T05:42:09.938Z,35.48
2019-01-24T05:44:38.039Z,33.38
2019-01-24T05:47:06.005Z,33.08
2019-01-24T05:49:33.854Z,34.23
2019-01-24T05:52:01.719Z,33.85
2019-01-24T05:54:29.747Z,34.23
2019-01-24T05:56:57.710Z,33.53
2019-01-24T05:59:25.626Z,34.00
2019-01-24T06:01:54.302Z,32.70
2019-01-24T06:04:22.288Z,34.80
2019-01-24T06:06:50.401Z,32.60
2019-01-24T06:09:18.639Z,36.23
2019-01-24T06:11:46.698Z,36.70
2019-01-24T06:14:14.669Z,32.70
2019-01-24T06:16:42.562Z,33.20
2019-01-24T06:19:10.824Z,35.80
2019-01-24T06:21:39.027Z,33.15
2019-01-24T06:24:06.991Z,34.30
2019-01-24T06:26:34.954Z,35.30
2019-01-24T06:29:03.125Z,34.92
2019-01-24T06:31:31.011Z,34.23
2019-01-24T06:33:58.938Z,37.55
2019-01-24T06:36:27.356Z,35.15
2019-01-24T06:38:55.363Z,38.80
2019-01-24T06:41:23.235Z,33.15
2019-01-24T06:43:51.139Z,35.52
2019-01-24T06:46:19.139Z,36.73
2019-01-24T06:48:47.093Z,37.13
2019-01-24T06:51:14.980Z,35.60
2019-01-24T06:53:42.968Z,35.85
2019-01-24T06:56:10.981Z,37.45
2019-01-24T06:58:38.862Z,37.70
2019-01-24T07:01:06.866Z,37.78
2019-01-24T07:03:34.798Z,35.92
2019-01-24T07:06:02.970Z,36.30
2019-01-24T07:08:30.849Z,34.38
2019-01-24T07:10:58.755Z,35.00
2019-01-24T07:13:26.687Z,36.70
2019-01-24T07:15:54.572Z,35.00
2019-01-24T07:18:22.662Z,34.98
2019-01-24T07:20:50.557Z,35.88
2019-01-24T07:23:18.399Z,41.15
2019-01-24T07:25:46.400Z,34.58
2019-01-24T07:28:14.317Z,35.03
2019-01-24T07:30:42.534Z,35.38
2019-01-24T07:33:10.840Z,33.45
2019-01-24T07:35:38.705Z,35.95
2019-01-24T07:38:06.785Z,33.95
2019-01-24T07:40:34.766Z,37.13
2019-01-24T07:43:02.905Z,32.58
2019-01-24T07:45:36.616Z,33.25
2019-01-24T07:48:05.421Z,34.78
2019-01-24T07:50:33.450Z,36.63
2019-01-24T07:53:01.696Z,37.17
2019-01-24T07:55:29.679Z,37.25
2019-01-24T07:57:57.726Z,37.17
2019-01-24T08:00:26.017Z,37.13
2019-01-24T08:02:54.167Z,35.55
2019-01-24T08:05:22.700Z,35.85
2019-01-24T08:07:51.798Z,36.23
2019-01-24T08:10:20.048Z,36.33
2019-01-24T08:12:48.141Z,35.92
2019-01-24T08:15:17.217Z,39.75
2019-01-24T08:17:45.307Z,34.23
2019-01-24T08:20:15.680Z,36.83
2019-01-24T08:22:43.849Z,36.20
2019-01-24T08:25:12.370Z,36.65
2019-01-24T08:27:40.363Z,36.83
2019-01-24T08:30:20.208Z,37.20
2019-01-24T08:32:47.352Z,34.18
2019-01-24T08:35:14.766Z,34.85
2019-01-24T08:37:41.847Z,38.35
2019-01-24T08:40:09.955Z,40.05
2019-01-24T08:42:37.497Z,39.73
2019-01-24T08:45:06.225Z,38.02
2019-01-24T08:47:34.375Z,36.13
2019-01-24T08:50:03.953Z,38.45
2019-01-24T08:52:31.666Z,36.77
2019-01-24T08:54:59.338Z,36.10
2019-01-24T08:57:26.435Z,38.08
2019-01-24T08:59:54.842Z,35.48
2019-01-24T09:02:22.962Z,40.20
2019-01-24T09:04:51.308Z,35.43
2019-01-24T09:07:19.469Z,39.10
2019-01-24T09:09:48.129Z,40.75
2019-01-24T09:12:16.670Z,38.15
2019-01-24T09:14:45.135Z,38.83
2019-01-24T09:17:12.704Z,40.58
2019-01-24T09:19:41.314Z,39.75
2019-01-24T09:22:09.586Z,39.30
2019-01-24T09:24:38.411Z,38.00
2019-01-24T09:27:07.654Z,40.03
2019-01-24T09:29:35.865Z,39.50
2019-01-24T09:32:04.406Z,36.28
2019-01-24T09:34:32.958Z,38.95
2019-01-24T09:37:01.502Z,38.50
2019-01-24T09:39:29.813Z,39.88
2019-01-24T09:41:58.040Z,43.52
2019-01-24T09:44:27.645Z,38.78
2019-01-24T09:46:55.590Z,39.50
2019-01-24T09:49:23.786Z,41.92
2019-01-24T09:51:52.266Z,40.98
2019-01-24T09:54:21.468Z,38.38
2019-01-24T09:56:49.754Z,39.88
2019-01-24T09:59:17.933Z,45.38
2019-01-24T10:01:46.562Z,39.75
2019-01-24T10:04:15.390Z,41.60
2019-01-24T10:06:43.557Z,41.75
2019-01-24T10:09:12.035Z,43.95
2019-01-24T10:11:40.565Z,42.27
2019-01-24T10:14:08.758Z,40.25
2019-01-24T10:16:37.270Z,43.20
2019-01-24T10:19:05.670Z,39.85
2019-01-24T10:21:33.982Z,41.55
2019-01-24T10:24:02.736Z,42.00
2019-01-24T10:26:31.063Z,42.48
2019-01-24T10:28:59.096Z,40.90
2019-01-24T10:31:27.466Z,43.90
2019-01-24T10:33:55.875Z,40.73
2019-01-24T10:36:24.428Z,42.27
2019-01-24T10:38:53.056Z,40.92
2019-01-24T10:41:21.189Z,42.03
2019-01-24T10:43:49.805Z,37.63
2019-01-24T10:46:18.073Z,47.17
2019-01-24T10:48:46.196Z,42.27
2019-01-24T10:51:14.821Z,41.20
2019-01-24T10:53:43.108Z,41.15
2019-01-24T10:56:11.740Z,39.80
2019-01-24T10:58:40.110Z,40.75
2019-01-24T11:01:08.893Z,43.05
2019-01-24T11:03:37.251Z,38.83
2019-01-24T11:06:05.701Z,39.27
2019-01-24T11:08:34.337Z,42.43
2019-01-24T11:11:02.597Z,40.63
2019-01-24T11:13:31.214Z,41.95
2019-01-24T11:15:59.720Z,40.10
2019-01-24T11:18:28.823Z,41.15
2019-01-24T11:20:57.309Z,41.33
2019-01-24T11:23:25.945Z,41.18
2019-01-24T11:25:54.408Z,43.23
2019-01-24T11:28:22.479Z,40.40
2019-01-24T11:30:50.854Z,44.90
2019-01-24T11:33:18.789Z,41.75
2019-01-24T11:35:47.110Z,43.40
2019-01-24T11:38:15.998Z,42.55
2019-01-24T11:40:44.590Z,45.58
2019-01-24T11:43:13.027Z,40.40
2019-01-24T11:45:42.720Z,40.17
2019-01-24T11:48:11.467Z,45.15
2019-01-24T11:50:40.021Z,43.90
2019-01-24T11:53:08.286Z,42.25
2019-01-24T11:55:36.862Z,41.58
2019-01-24T11:58:05.717Z,43.83
2019-01-24T12:00:39.286Z,40.10
2019-01-24T12:03:07.626Z,42.83
2019-01-24T12:05:36.677Z,41.58
2019-01-24T12:08:06.189Z,41.63
2019-01-24T12:10:34.339Z,39.55
2019-01-24T12:13:02.999Z,40.43
2019-01-24T12:15:31.665Z,41.25
2019-01-24T12:18:00.047Z,41.33
2019-01-24T12:20:28.676Z,40.45
2019-01-24T12:22:57.272Z,46.30
2019-01-24T12:25:25.381Z,43.73
2019-01-24T12:27:53.907Z,42.53
2019-01-24T12:30:26.962Z,43.95
2019-01-24T12:32:54.681Z,39.65
2019-01-24T12:35:22.374Z,39.58
2019-01-24T12:37:51.276Z,40.98
2019-01-24T12:40:19.665Z,41.73
2019-01-24T12:42:48.315Z,40.52
2019-01-24T12:45:21.514Z,42.03
2019-01-24T12:47:49.920Z,42.90
2019-01-24T12:50:18.611Z,40.58
2019-01-24T12:52:46.984Z,42.25
2019-01-24T12:55:15.463Z,43.60
2019-01-24T12:57:44.588Z,42.30
2019-01-24T13:00:21.365Z,42.55
2019-01-24T13:02:49.526Z,42.13
2019-01-24T13:05:18.201Z,44.53
2019-01-24T13:07:46.620Z,43.02
2019-01-24T13:10:16.847Z,41.75
2019-01-24T13:12:45.389Z,43.25
2019-01-24T13:15:13.934Z,45.10
2019-01-24T13:17:42.265Z,41.42
2019-01-24T13:20:12.138Z,40.65
2019-01-24T13:22:40.723Z,43.23
2019-01-24T13:25:11.917Z,43.05
2019-01-24T13:27:39.859Z,43.30
2019-01-24T13:30:11.654Z,40.90
2019-01-24T13:32:40.386Z,41.30
2019-01-24T13:35:08.865Z,40.70
2019-01-24T13:37:37.707Z,39.90
2019-01-24T13:40:08.798Z,41.10
2019-01-24T13:42:36.810Z,40.25
2019-01-24T13:45:07.254Z,39.42
2019-01-24T13:47:35.706Z,38.60
2019-01-24T13:50:05.460Z,39.83
2019-01-24T13:52:33.851Z,39.60
2019-01-24T13:55:02.005Z,40.08
2019-01-24T13:57:30.065Z,39.55
2019-01-24T13:59:58.270Z,42.62
2019-01-24T14:02:26.730Z,38.38
2019-01-24T14:04:54.916Z,36.53
2019-01-24T14:07:23.854Z,34.15
2019-01-24T14:09:52.186Z,33.28
2019-01-24T14:12:20.396Z,32.83
2019-01-24T14:14:48.875Z,31.42
2019-01-24T14:17:17.294Z,29.75
2019-01-24T14:19:45.218Z,31.35
2019-01-24T14:22:13.518Z,31.85
2019-01-24T14:24:42.077Z,32.67
2019-01-24T14:27:10.358Z,37.23
2019-01-24T14:29:38.497Z,41.25
2019-01-24T14:32:06.747Z,38.75
2019-01-24T14:34:35.018Z,38.67
2019-01-24T14:37:03.421Z,40.85
2019-01-24T14:39:31.334Z,40.67
2019-01-24T14:41:59.859Z,41.05
2019-01-24T14:44:28.175Z,38.02
2019-01-24T14:46:56.715Z,36.83
2019-01-24T14:49:25.225Z,35.05
2019-01-24T14:51:54.014Z,36.58
2019-01-24T14:54:22.288Z,36.77
2019-01-24T14:56:50.705Z,38.73
2019-01-24T14:59:19.005Z,33.35
2019-01-24T15:01:47.440Z,34.25
2019-01-24T15:04:16.039Z,38.45
2019-01-24T15:06:44.880Z,34.48
2019-01-24T15:09:13.037Z,33.88
2019-01-24T15:11:42.120Z,35.70
2019-01-24T15:14:10.390Z,33.20
2019-01-24T15:16:38.765Z,36.05
2019-01-24T15:19:06.706Z,33.20
2019-01-24T15:21:35.997Z,32.05
2019-01-24T15:24:04.489Z,36.25
2019-01-24T15:26:33.118Z,34.03
2019-01-24T15:29:01.643Z,33.50
2019-01-24T15:31:30.095Z,34.90
2019-01-24T15:33:59.011Z,33.28
2019-01-24T15:36:27.671Z,32.50
2019-01-24T15:38:56.462Z,32.45
2019-01-24T15:41:25.035Z,34.45
2019-01-24T15:43:53.278Z,32.35
2019-01-24T15:46:21.618Z,34.43
2019-01-24T15:48:57.167Z,32.42
2019-01-24T15:51:24.901Z,31.90
2019-01-24T15:53:52.321Z,32.20
2019-01-24T15:56:20.142Z,30.95
2019-01-24T15:58:50.797Z,33.53
2019-01-24T16:01:18.721Z,33.60
2019-01-24T16:03:46.019Z,34.70
2019-01-24T16:06:13.506Z,35.23
2019-01-24T16:08:40.647Z,33.60
2019-01-24T16:11:08.656Z,32.40
2019-01-24T16:13:37.383Z,33.02
2019-01-24T16:16:05.941Z,35.28
2019-01-24T16:18:34.672Z,35.30
2019-01-24T16:21:02.821Z,31.80
2019-01-24T16:23:31.435Z,30.97
2019-01-24T16:25:59.873Z,31.45
2019-01-24T16:28:28.208Z,31.45
2019-01-24T16:30:56.771Z,32.15
2019-01-24T16:33:25.401Z,31.90
2019-01-24T16:35:53.986Z,30.97
2019-01-24T16:38:22.287Z,32.25
2019-01-24T16:40:50.453Z,32.20
2019-01-24T16:43:18.979Z,31.77
2019-01-24T16:45:47.335Z,33.73
2019-01-24T16:48:15.756Z,32.45
2019-01-24T16:50:44.083Z,37.05
2019-01-24T16:53:12.610Z,36.38
2019-01-24T16:55:40.532Z,34.70
2019-01-24T16:58:08.955Z,35.40
2019-01-24T17:01:01.602Z,33.63
2019-01-24T17:03:29.090Z,36.75
2019-01-24T17:05:56.571Z,35.75
2019-01-24T17:08:24.073Z,35.80
2019-01-24T17:10:51.574Z,31.62
2019-01-24T17:13:19.138Z,32.63
2019-01-24T17:15:47.109Z,30.23
2019-01-24T17:18:14.347Z,31.73
2019-01-24T17:20:42.694Z,32.95
2019-01-24T17:23:11.347Z,34.33
2019-01-24T17:25:40.006Z,32.93
2019-01-24T17:28:08.489Z,32.58
2019-01-24T17:30:36.940Z,35.05
2019-01-24T17:33:06.364Z,32.53
2019-01-24T17:35:34.529Z,30.57
2019-01-24T17:38:02.687Z,32.73
2019-01-24T17:40:30.994Z,30.48
2019-01-24T17:42:59.530Z,31.35
2019-01-24T17:45:27.842Z,32.85
2019-01-24T17:47:56.594Z,32.73
2019-01-24T17:50:24.941Z,30.85
2019-01-24T17:52:53.198Z,32.63
2019-01-24T17:55:24.252Z,31.42
2019-01-24T17:57:52.690Z,32.00
2019-01-24T18:00:21.585Z,32.78
2019-01-24T18:02:49.780Z,31.97
2019-01-24T18:05:18.050Z,32.25
2019-01-24T18:07:46.168Z,32.42
2019-01-24T18:10:16.974Z,30.97
2019-01-24T18:12:45.210Z,34.73
2019-01-24T18:15:16.600Z,33.25
2019-01-24T18:17:45.040Z,31.10
2019-01-24T18:20:18.414Z,35.10
2019-01-24T18:22:46.409Z,32.40
2019-01-24T18:25:14.645Z,34.45
2019-01-24T18:27:43.357Z,30.68
2019-01-24T18:30:15.028Z,33.90
2019-01-24T18:32:43.921Z,35.48
2019-01-24T18:35:13.787Z,31.62
2019-01-24T18:37:42.088Z,30.90
2019-01-24T18:40:13.133Z,35.73
2019-01-24T18:42:41.433Z,33.75
2019-01-24T18:45:12.268Z,34.15
2019-01-24T18:47:40.625Z,35.78
2019-01-24T18:50:12.182Z,32.90
2019-01-24T18:52:43.629Z,37.80
2019-01-24T18:55:11.919Z,45.20
2019-01-24T18:57:40.004Z,35.98
2019-01-24T19:00:12.144Z,35.63
2019-01-24T19:02:40.534Z,33.75
2019-01-24T19:05:09.269Z,35.58
2019-01-24T19:07:37.313Z,33.78
2019-01-24T19:10:06.167Z,38.70
2019-01-24T19:12:34.470Z,34.15
2019-01-24T19:15:04.014Z,33.38
2019-01-24T19:17:32.162Z,33.90
2019-01-24T19:20:00.536Z,35.78
2019-01-24T19:22:28.553Z,33.53
2019-01-24T19:24:57.063Z,34.13
2019-01-24T19:27:25.165Z,34.85
2019-01-24T19:29:53.404Z,36.30
2019-01-24T19:32:21.334Z,37.70
2019-01-24T19:34:49.586Z,38.08
2019-01-24T19:37:17.689Z,38.67
2019-01-24T19:39:45.979Z,38.48
2019-01-24T19:42:14.170Z,36.75
2019-01-24T19:44:42.138Z,35.83
2019-01-24T19:47:10.260Z,36.20
2019-01-24T19:49:39.045Z,37.13
2019-01-24T19:52:07.446Z,35.43
2019-01-24T19:54:35.374Z,36.65
2019-01-24T19:57:03.841Z,36.65
2019-01-24T19:59:31.955Z,37.73
2019-01-24T20:02:00.140Z,38.88
2019-01-24T20:04:28.461Z,39.23
2019-01-24T20:06:57.061Z,40.88
2019-01-24T20:09:25.124Z,38.95
2019-01-24T20:11:53.307Z,38.88
2019-01-24T20:14:21.437Z,39.48
2019-01-24T20:16:49.467Z,40.15
2019-01-24T20:19:17.614Z,39.40
2019-01-24T20:21:45.752Z,40.67
2019-01-24T20:24:14.066Z,37.10
2019-01-24T20:26:42.400Z,36.88
2019-01-24T20:29:10.641Z,39.45
2019-01-24T20:31:38.581Z,38.53
2019-01-24T20:34:06.730Z,38.60
2019-01-24T20:36:34.703Z,38.88
2019-01-24T20:39:07.496Z,38.63
2019-01-24T20:41:35.861Z,35.23
2019-01-24T20:44:04.055Z,40.92
2019-01-24T20:46:32.386Z,38.53
2019-01-24T20:49:00.929Z,34.35
2019-01-24T20:51:28.913Z,31.42
2019-01-24T20:53:56.966Z,34.63
2019-01-24T20:56:25.002Z,34.30
2019-01-24T20:58:53.258Z,32.80
2019-01-24T21:01:21.304Z,31.30
2019-01-24T21:03:55.312Z,37.08
2019-01-24T21:06:19.642Z,34.35
2019-01-24T21:08:47.838Z,30.97
2019-01-24T21:11:15.840Z,34.38
2019-01-24T21:13:44.114Z,33.33
2019-01-24T21:16:12.244Z,33.25
2019-01-24T21:18:40.517Z,31.90
2019-01-24T21:21:08.560Z,33.80
2019-01-24T21:23:36.674Z,31.87
2019-01-24T21:26:05.141Z,32.63
2019-01-24T21:28:33.323Z,31.65
2019-01-24T21:31:01.348Z,32.30
2019-01-24T21:33:29.413Z,30.85
2019-01-24T21:35:57.686Z,33.88
2019-01-24T21:38:25.983Z,29.50
2019-01-24T21:40:54.173Z,31.30
2019-01-24T21:43:22.265Z,29.98
2019-01-24T21:45:50.413Z,29.32
2019-01-24T21:48:19.748Z,33.25
2019-01-24T21:50:47.873Z,29.72
2019-01-24T21:53:16.154Z,30.20
2019-01-24T21:55:44.448Z,31.87
2019-01-24T21:58:12.557Z,31.05
2019-01-24T22:00:40.574Z,29.25
2019-01-24T22:03:08.961Z,30.80
2019-01-24T22:05:37.479Z,31.00
2019-01-24T22:08:05.832Z,31.10
2019-01-24T22:10:33.982Z,29.80
2019-01-24T22:13:02.210Z,31.20
2019-01-24T22:15:30.469Z,34.95
2019-01-24T22:17:58.705Z,30.77
2019-01-24T22:20:27.026Z,28.60
2019-01-24T22:22:55.257Z,30.55
2019-01-24T22:25:25.330Z,28.85
2019-01-24T22:27:53.491Z,28.52
2019-01-24T22:30:28.887Z,28.35
2019-01-24T22:32:57.066Z,30.90
2019-01-24T22:35:25.506Z,28.50
2019-01-24T22:37:54.089Z,28.70
2019-01-24T22:40:22.206Z,29.55
2019-01-24T22:42:50.568Z,28.83
2019-01-24T22:45:20.893Z,28.42
2019-01-24T22:47:48.927Z,27.85
2019-01-24T22:50:17.343Z,28.67
2019-01-24T22:52:45.580Z,29.40
2019-01-24T22:55:14.165Z,26.07
2019-01-24T22:57:42.542Z,30.50
2019-01-24T23:00:46.921Z,29.02
2019-01-24T23:03:30.931Z,29.87
2019-01-24T23:05:58.213Z,30.25
2019-01-24T23:08:25.622Z,28.25
2019-01-24T23:10:53.394Z,26.12
2019-01-24T23:13:20.830Z,31.27
2019-01-24T23:15:48.237Z,28.25
2019-01-24T23:18:15.550Z,27.42
2019-01-24T23:20:42.890Z,30.35
2019-01-24T23:23:10.376Z,29.40
2019-01-24T23:25:37.688Z,28.87
2019-01-24T23:28:05.010Z,28.85
2019-01-24T23:30:32.170Z,29.35
2019-01-24T23:32:59.227Z,27.37
2019-01-24T23:35:27.349Z,26.97
2019-01-24T23:37:55.974Z,28.40
2019-01-24T23:40:24.846Z,27.22
2019-01-24T23:42:53.429Z,27.30
2019-01-24T23:45:21.729Z,25.70
2019-01-24T23:47:50.269Z,30.32
2019-01-24T23:50:18.734Z,27.52
2019-01-24T23:52:46.914Z,30.95
2019-01-24T23:55:16.205Z,30.70
2019-01-24T23:57:44.595Z,26.80
